Weather at Dutchess County Airport

Public forecast

Using degrees Fahrenheit for public forecast. Weather courtesy of forecast.io.

Current aviation weather report (METAR) for Dutchess County Airport

Retrieved 2020/10/24 03:53 UTC (1 hour ago):

KPOU 240353Z AUTO 14003KT 9SM CLR 16/14 A3001 RMK AO2 SLP158 T01560139

Aviation forecast (TAF) for Dutchess County Airport

Retrieved 2020-10-24 00:34 UTC (4 hours ago):

TAF KPOU 232331Z 2400/2424 16008KT P6SM BKN025 BKN045 FM240200 18004KT P6SM SCT010 BKN020 FM241500 27008KT P6SM BKN025 OVC050 FM241800 32010KT P6SM BKN035